sensor_id;sensor_type;location;lat;lon;timestamp;P1;durP1;ratioP1;P2;durP2;ratioP2
5612;SDS011;63463;53.586;9.928;2023-02-01T00:00:51;18.20;;;6.60;;
5612;SDS011;63463;53.586;9.928;2023-02-01T00:03:18;20.17;;;6.43;;
5612;SDS011;63463;53.586;9.928;2023-02-01T00:05:44;20.97;;;6.13;;
5612;SDS011;63463;53.586;9.928;2023-02-01T00:08:10;25.93;;;7.40;;
5612;SDS011;63463;53.586;9.928;2023-02-01T00:10:36;21.47;;;7.20;;
5612;SDS011;63463;53.586;9.928;2023-02-01T00:13:03;25.13;;;7.70;;
5612;SDS011;63463;53.586;9.928;2023-02-01T00:15:30;19.33;;;6.77;;
5612;SDS011;63463;53.586;9.928;2023-02-01T00:17:58;19.10;;;6.90;;
5612;SDS011;63463;53.586;9.928;2023-02-01T00:20:24;16.37;;;6.50;;
5612;SDS011;63463;53.586;9.928;2023-02-01T00:22:50;24.47;;;7.17;;
5612;SDS011;63463;53.586;9.928;2023-02-01T00:25:16;32.87;;;7.77;;
5612;SDS011;63463;53.586;9.928;2023-02-01T00:27:42;30.20;;;7.40;;
5612;SDS011;63463;53.586;9.928;2023-02-01T00:30:08;14.33;;;5.73;;
5612;SDS011;63463;53.586;9.928;2023-02-01T00:32:35;21.20;;;6.83;;
5612;SDS011;63463;53.586;9.928;2023-02-01T00:35:00;18.73;;;6.53;;
5612;SDS011;63463;53.586;9.928;2023-02-01T00:37:26;21.77;;;7.90;;
5612;SDS011;63463;53.586;9.928;2023-02-01T00:39:53;18.83;;;6.90;;
5612;SDS011;63463;53.586;9.928;2023-02-01T00:42:20;32.80;;;7.40;;
5612;SDS011;63463;53.586;9.928;2023-02-01T00:44:46;51.90;;;7.67;;
5612;SDS011;63463;53.586;9.928;2023-02-01T00:47:13;28.47;;;6.37;;
5612;SDS011;63463;53.586;9.928;2023-02-01T00:49:39;29.63;;;7.17;;
5612;SDS011;63463;53.586;9.928;2023-02-01T00:52:06;19.33;;;7.27;;
5612;SDS011;63463;53.586;9.928;2023-02-01T00:54:32;24.80;;;7.07;;
5612;SDS011;63463;53.586;9.928;2023-02-01T00:56:59;29.93;;;6.90;;
5612;SDS011;63463;53.586;9.928;2023-02-01T00:59:25;16.67;;;6.20;;
5612;SDS011;63463;53.586;9.928;2023-02-01T01:01:51;30.50;;;6.50;;
5612;SDS011;63463;53.586;9.928;2023-02-01T01:04:17;34.63;;;7.03;;
5612;SDS011;63463;53.586;9.928;2023-02-01T01:06:43;52.00;;;8.50;;
5612;SDS011;63463;53.586;9.928;2023-02-01T01:09:09;29.57;;;8.07;;
5612;SDS011;63463;53.586;9.928;2023-02-01T01:11:36;33.23;;;7.90;;
5612;SDS011;63463;53.586;9.928;2023-02-01T01:14:02;37.73;;;7.83;;
5612;SDS011;63463;53.586;9.928;2023-02-01T01:16:29;23.30;;;6.57;;
5612;SDS011;63463;53.586;9.928;2023-02-01T01:18:56;35.87;;;8.27;;
5612;SDS011;63463;53.586;9.928;2023-02-01T01:21:22;25.60;;;7.03;;
5612;SDS011;63463;53.586;9.928;2023-02-01T01:23:48;37.63;;;6.20;;
5612;SDS011;63463;53.586;9.928;2023-02-01T01:26:18;27.77;;;9.43;;
5612;SDS011;63463;53.586;9.928;2023-02-01T01:28:45;25.77;;;7.83;;
5612;SDS011;63463;53.586;9.928;2023-02-01T01:31:11;27.53;;;7.77;;
5612;SDS011;63463;53.586;9.928;2023-02-01T01:33:39;29.40;;;7.00;;
5612;SDS011;63463;53.586;9.928;2023-02-01T01:36:09;29.67;;;7.23;;
5612;SDS011;63463;53.586;9.928;2023-02-01T01:38:36;33.27;;;7.93;;
5612;SDS011;63463;53.586;9.928;2023-02-01T01:41:02;59.67;;;8.23;;
5612;SDS011;63463;53.586;9.928;2023-02-01T01:43:44;41.27;;;7.43;;
5612;SDS011;63463;53.586;9.928;2023-02-01T01:46:15;34.37;;;6.97;;
5612;SDS011;63463;53.586;9.928;2023-02-01T01:48:41;27.60;;;7.97;;
5612;SDS011;63463;53.586;9.928;2023-02-01T01:51:08;30.17;;;7.33;;
5612;SDS011;63463;53.586;9.928;2023-02-01T01:53:38;31.43;;;7.83;;
5612;SDS011;63463;53.586;9.928;2023-02-01T01:56:08;29.93;;;7.90;;
5612;SDS011;63463;53.586;9.928;2023-02-01T01:58:34;31.93;;;7.93;;
5612;SDS011;63463;53.586;9.928;2023-02-01T02:01:00;29.50;;;7.70;;
5612;SDS011;63463;53.586;9.928;2023-02-01T02:03:27;20.77;;;7.13;;
5612;SDS011;63463;53.586;9.928;2023-02-01T02:05:58;35.63;;;7.47;;
5612;SDS011;63463;53.586;9.928;2023-02-01T02:08:25;32.23;;;6.90;;
5612;SDS011;63463;53.586;9.928;2023-02-01T02:10:52;35.53;;;7.73;;
5612;SDS011;63463;53.586;9.928;2023-02-01T02:13:35;34.93;;;8.60;;
5612;SDS011;63463;53.586;9.928;2023-02-01T02:16:04;15.87;;;6.83;;
5612;SDS011;63463;53.586;9.928;2023-02-01T02:18:34;42.50;;;7.67;;
5612;SDS011;63463;53.586;9.928;2023-02-01T02:21:09;21.50;;;7.50;;
5612;SDS011;63463;53.586;9.928;2023-02-01T02:33:41;35.57;;;7.87;;
5612;SDS011;63463;53.586;9.928;2023-02-01T02:36:19;40.40;;;8.03;;
5612;SDS011;63463;53.586;9.928;2023-02-01T02:39:04;22.67;;;7.30;;
5612;SDS011;63463;53.586;9.928;2023-02-01T02:41:33;36.93;;;8.20;;
5612;SDS011;63463;53.586;9.928;2023-02-01T02:47:05;32.83;;;7.27;;
5612;SDS011;63463;53.586;9.928;2023-02-01T02:49:54;33.70;;;8.13;;
5612;SDS011;63463;53.586;9.928;2023-02-01T02:52:45;34.37;;;8.10;;
5612;SDS011;63463;53.586;9.928;2023-02-01T02:55:32;27.63;;;7.40;;
5612;SDS011;63463;53.586;9.928;2023-02-01T02:58:01;24.53;;;7.50;;
5612;SDS011;63463;53.586;9.928;2023-02-01T03:00:47;33.83;;;8.30;;
5612;SDS011;63463;53.586;9.928;2023-02-01T03:03:35;42.20;;;8.53;;
5612;SDS011;63463;53.586;9.928;2023-02-01T03:06:22;27.43;;;7.70;;
5612;SDS011;63463;53.586;9.928;2023-02-01T03:08:48;39.23;;;7.57;;
5612;SDS011;63463;53.586;9.928;2023-02-01T03:11:18;23.40;;;7.40;;
5612;SDS011;63463;53.586;9.928;2023-02-01T03:18:50;27.23;;;7.30;;
5612;SDS011;63463;53.586;9.928;2023-02-01T03:22:04;32.43;;;7.77;;
5612;SDS011;63463;53.586;9.928;2023-02-01T03:24:05;27.37;;;6.87;;
5612;SDS011;63463;53.586;9.928;2023-02-01T03:26:33;20.40;;;7.53;;
5612;SDS011;63463;53.586;9.928;2023-02-01T03:29:05;20.03;;;6.23;;
5612;SDS011;63463;53.586;9.928;2023-02-01T03:31:34;13.63;;;5.83;;
5612;SDS011;63463;53.586;9.928;2023-02-01T03:34:00;17.00;;;6.60;;
5612;SDS011;63463;53.586;9.928;2023-02-01T03:36:29;12.90;;;6.00;;
5612;SDS011;63463;53.586;9.928;2023-02-01T03:39:03;19.83;;;5.03;;
5612;SDS011;63463;53.586;9.928;2023-02-01T03:41:37;14.50;;;5.63;;
5612;SDS011;63463;53.586;9.928;2023-02-01T03:44:17;9.30;;;5.60;;
5612;SDS011;63463;53.586;9.928;2023-02-01T03:49:14;8.93;;;5.47;;
5612;SDS011;63463;53.586;9.928;2023-02-01T03:51:42;10.30;;;5.43;;
5612;SDS011;63463;53.586;9.928;2023-02-01T03:54:09;20.10;;;6.90;;
5612;SDS011;63463;53.586;9.928;2023-02-01T03:56:38;21.20;;;6.30;;
5612;SDS011;63463;53.586;9.928;2023-02-01T03:59:05;29.60;;;7.00;;
5612;SDS011;63463;53.586;9.928;2023-02-01T04:01:31;16.60;;;6.20;;
5612;SDS011;63463;53.586;9.928;2023-02-01T04:03:57;13.97;;;5.97;;
5612;SDS011;63463;53.586;9.928;2023-02-01T04:06:24;25.73;;;6.50;;
5612;SDS011;63463;53.586;9.928;2023-02-01T04:08:50;20.67;;;6.30;;
5612;SDS011;63463;53.586;9.928;2023-02-01T04:11:17;21.73;;;6.63;;
5612;SDS011;63463;53.586;9.928;2023-02-01T04:13:43;33.20;;;7.00;;
5612;SDS011;63463;53.586;9.928;2023-02-01T04:16:09;16.93;;;6.80;;
5612;SDS011;63463;53.586;9.928;2023-02-01T04:18:35;19.67;;;6.60;;
5612;SDS011;63463;53.586;9.928;2023-02-01T04:21:01;19.33;;;7.20;;
5612;SDS011;63463;53.586;9.928;2023-02-01T04:23:28;18.93;;;6.33;;
5612;SDS011;63463;53.586;9.928;2023-02-01T04:25:58;9.10;;;5.13;;
5612;SDS011;63463;53.586;9.928;2023-02-01T04:28:25;14.93;;;5.30;;
5612;SDS011;63463;53.586;9.928;2023-02-01T04:30:51;24.13;;;6.00;;
5612;SDS011;63463;53.586;9.928;2023-02-01T04:33:17;11.73;;;5.83;;
5612;SDS011;63463;53.586;9.928;2023-02-01T04:35:43;15.43;;;6.30;;
5612;SDS011;63463;53.586;9.928;2023-02-01T04:38:09;16.37;;;5.60;;
5612;SDS011;63463;53.586;9.928;2023-02-01T04:40:35;8.77;;;5.37;;
5612;SDS011;63463;53.586;9.928;2023-02-01T04:43:02;9.53;;;5.77;;
5612;SDS011;63463;53.586;9.928;2023-02-01T04:45:29;22.47;;;6.80;;
5612;SDS011;63463;53.586;9.928;2023-02-01T04:47:55;13.60;;;6.00;;
5612;SDS011;63463;53.586;9.928;2023-02-01T04:50:21;28.90;;;5.80;;
5612;SDS011;63463;53.586;9.928;2023-02-01T04:52:48;10.20;;;5.50;;
5612;SDS011;63463;53.586;9.928;2023-02-01T04:55:14;6.00;;;5.40;;
5612;SDS011;63463;53.586;9.928;2023-02-01T04:57:40;12.47;;;5.93;;
5612;SDS011;63463;53.586;9.928;2023-02-01T05:00:07;4.60;;;4.40;;
5612;SDS011;63463;53.586;9.928;2023-02-01T05:02:33;13.30;;;5.93;;
5612;SDS011;63463;53.586;9.928;2023-02-01T05:05:00;8.87;;;4.77;;
5612;SDS011;63463;53.586;9.928;2023-02-01T05:07:26;6.97;;;4.80;;
5612;SDS011;63463;53.586;9.928;2023-02-01T05:09:51;4.90;;;4.43;;
5612;SDS011;63463;53.586;9.928;2023-02-01T05:12:17;4.50;;;4.10;;
5612;SDS011;63463;53.586;9.928;2023-02-01T05:15:02;4.87;;;4.63;;
5612;SDS011;63463;53.586;9.928;2023-02-01T05:17:28;6.20;;;4.30;;
5612;SDS011;63463;53.586;9.928;2023-02-01T05:19:54;7.43;;;5.10;;
5612;SDS011;63463;53.586;9.928;2023-02-01T05:22:20;4.50;;;4.30;;
5612;SDS011;63463;53.586;9.928;2023-02-01T05:24:46;4.67;;;4.37;;
5612;SDS011;63463;53.586;9.928;2023-02-01T05:27:12;9.97;;;4.60;;
5612;SDS011;63463;53.586;9.928;2023-02-01T05:29:38;7.97;;;5.23;;
5612;SDS011;63463;53.586;9.928;2023-02-01T05:32:04;5.47;;;4.60;;
5612;SDS011;63463;53.586;9.928;2023-02-01T05:34:30;4.80;;;4.43;;
5612;SDS011;63463;53.586;9.928;2023-02-01T05:36:56;4.97;;;4.50;;
5612;SDS011;63463;53.586;9.928;2023-02-01T05:39:22;5.00;;;4.80;;
5612;SDS011;63463;53.586;9.928;2023-02-01T05:41:48;5.00;;;4.53;;
5612;SDS011;63463;53.586;9.928;2023-02-01T05:44:14;5.60;;;5.00;;
5612;SDS011;63463;53.586;9.928;2023-02-01T05:46:40;4.10;;;4.00;;
5612;SDS011;63463;53.586;9.928;2023-02-01T05:49:06;4.70;;;4.50;;
5612;SDS011;63463;53.586;9.928;2023-02-01T05:51:33;5.07;;;4.77;;
5612;SDS011;63463;53.586;9.928;2023-02-01T05:53:59;4.60;;;4.40;;
5612;SDS011;63463;53.586;9.928;2023-02-01T05:56:25;4.20;;;4.10;;
5612;SDS011;63463;53.586;9.928;2023-02-01T05:58:51;5.90;;;4.60;;
5612;SDS011;63463;53.586;9.928;2023-02-01T06:01:17;4.60;;;4.50;;
5612;SDS011;63463;53.586;9.928;2023-02-01T06:03:43;7.13;;;4.70;;
5612;SDS011;63463;53.586;9.928;2023-02-01T06:06:09;4.90;;;4.60;;
5612;SDS011;63463;53.586;9.928;2023-02-01T06:08:35;4.93;;;4.73;;
5612;SDS011;63463;53.586;9.928;2023-02-01T06:11:02;4.63;;;4.43;;
5612;SDS011;63463;53.586;9.928;2023-02-01T06:13:28;7.87;;;4.90;;
5612;SDS011;63463;53.586;9.928;2023-02-01T06:15:54;4.57;;;4.47;;
5612;SDS011;63463;53.586;9.928;2023-02-01T06:18:21;5.67;;;4.80;;
5612;SDS011;63463;53.586;9.928;2023-02-01T06:20:57;5.30;;;4.80;;
5612;SDS011;63463;53.586;9.928;2023-02-01T06:23:25;7.47;;;5.10;;
5612;SDS011;63463;53.586;9.928;2023-02-01T06:25:52;10.60;;;5.03;;
5612;SDS011;63463;53.586;9.928;2023-02-01T06:28:18;8.73;;;5.13;;
5612;SDS011;63463;53.586;9.928;2023-02-01T06:30:44;5.93;;;5.33;;
5612;SDS011;63463;53.586;9.928;2023-02-01T06:33:12;11.90;;;5.77;;
5612;SDS011;63463;53.586;9.928;2023-02-01T06:35:40;5.17;;;4.77;;
5612;SDS011;63463;53.586;9.928;2023-02-01T06:38:07;9.30;;;5.23;;
5612;SDS011;63463;53.586;9.928;2023-02-01T06:40:33;15.33;;;5.30;;
5612;SDS011;63463;53.586;9.928;2023-02-01T06:43:00;14.83;;;5.80;;
5612;SDS011;63463;53.586;9.928;2023-02-01T06:45:26;13.57;;;5.97;;
5612;SDS011;63463;53.586;9.928;2023-02-01T06:47:52;7.37;;;6.00;;
5612;SDS011;63463;53.586;9.928;2023-02-01T06:50:18;18.27;;;6.10;;
5612;SDS011;63463;53.586;9.928;2023-02-01T06:52:44;10.67;;;5.50;;
5612;SDS011;63463;53.586;9.928;2023-02-01T06:55:10;10.10;;;5.13;;
5612;SDS011;63463;53.586;9.928;2023-02-01T06:57:35;5.77;;;5.30;;
5612;SDS011;63463;53.586;9.928;2023-02-01T07:00:02;24.63;;;5.97;;
5612;SDS011;63463;53.586;9.928;2023-02-01T07:02:29;5.90;;;5.47;;
5612;SDS011;63463;53.586;9.928;2023-02-01T07:04:55;14.77;;;5.70;;
5612;SDS011;63463;53.586;9.928;2023-02-01T07:07:22;14.10;;;5.70;;
5612;SDS011;63463;53.586;9.928;2023-02-01T07:09:48;11.73;;;6.07;;
5612;SDS011;63463;53.586;9.928;2023-02-01T07:12:14;15.87;;;6.07;;
5612;SDS011;63463;53.586;9.928;2023-02-01T07:14:40;20.93;;;6.63;;
5612;SDS011;63463;53.586;9.928;2023-02-01T07:17:06;16.67;;;6.00;;
5612;SDS011;63463;53.586;9.928;2023-02-01T07:19:32;12.00;;;6.27;;
5612;SDS011;63463;53.586;9.928;2023-02-01T07:21:58;29.20;;;6.37;;
5612;SDS011;63463;53.586;9.928;2023-02-01T07:24:24;15.50;;;6.17;;
5612;SDS011;63463;53.586;9.928;2023-02-01T07:26:50;19.93;;;6.73;;
5612;SDS011;63463;53.586;9.928;2023-02-01T07:29:17;9.93;;;5.87;;
5612;SDS011;63463;53.586;9.928;2023-02-01T07:31:43;20.00;;;6.40;;
5612;SDS011;63463;53.586;9.928;2023-02-01T07:34:09;12.90;;;6.20;;
5612;SDS011;63463;53.586;9.928;2023-02-01T07:36:34;46.10;;;7.63;;
5612;SDS011;63463;53.586;9.928;2023-02-01T07:39:01;20.30;;;6.57;;
5612;SDS011;63463;53.586;9.928;2023-02-01T07:41:27;16.27;;;6.13;;
5612;SDS011;63463;53.586;9.928;2023-02-01T07:43:53;20.47;;;7.37;;
5612;SDS011;63463;53.586;9.928;2023-02-01T07:46:20;28.43;;;6.97;;
5612;SDS011;63463;53.586;9.928;2023-02-01T07:48:46;48.83;;;8.70;;
5612;SDS011;63463;53.586;9.928;2023-02-01T07:51:13;27.70;;;7.20;;
5612;SDS011;63463;53.586;9.928;2023-02-01T07:53:39;19.03;;;7.20;;
5612;SDS011;63463;53.586;9.928;2023-02-01T07:56:12;23.73;;;7.60;;
5612;SDS011;63463;53.586;9.928;2023-02-01T07:58:38;24.13;;;8.00;;
5612;SDS011;63463;53.586;9.928;2023-02-01T08:01:04;22.83;;;6.90;;
5612;SDS011;63463;53.586;9.928;2023-02-01T08:03:50;24.13;;;8.30;;
5612;SDS011;63463;53.586;9.928;2023-02-01T08:06:17;17.77;;;6.57;;
5612;SDS011;63463;53.586;9.928;2023-02-01T08:08:44;31.60;;;8.00;;
5612;SDS011;63463;53.586;9.928;2023-02-01T08:11:11;20.20;;;6.87;;
5612;SDS011;63463;53.586;9.928;2023-02-01T08:13:38;27.50;;;8.10;;
5612;SDS011;63463;53.586;9.928;2023-02-01T08:16:04;20.63;;;7.13;;
5612;SDS011;63463;53.586;9.928;2023-02-01T08:18:31;26.90;;;7.10;;
5612;SDS011;63463;53.586;9.928;2023-02-01T08:21:01;23.63;;;7.30;;
5612;SDS011;63463;53.586;9.928;2023-02-01T08:23:28;20.50;;;8.40;;
5612;SDS011;63463;53.586;9.928;2023-02-01T08:25:55;51.47;;;7.47;;
5612;SDS011;63463;53.586;9.928;2023-02-01T08:28:29;23.33;;;6.70;;
5612;SDS011;63463;53.586;9.928;2023-02-01T08:30:55;33.30;;;7.93;;
5612;SDS011;63463;53.586;9.928;2023-02-01T08:33:21;21.43;;;7.23;;
5612;SDS011;63463;53.586;9.928;2023-02-01T08:35:47;24.13;;;6.63;;
5612;SDS011;63463;53.586;9.928;2023-02-01T08:38:13;27.20;;;7.20;;
5612;SDS011;63463;53.586;9.928;2023-02-01T08:40:39;25.83;;;7.27;;
5612;SDS011;63463;53.586;9.928;2023-02-01T08:43:06;28.13;;;6.47;;
5612;SDS011;63463;53.586;9.928;2023-02-01T08:45:32;16.97;;;5.83;;
5612;SDS011;63463;53.586;9.928;2023-02-01T08:47:59;13.43;;;5.87;;
5612;SDS011;63463;53.586;9.928;2023-02-01T08:50:25;33.03;;;6.03;;
5612;SDS011;63463;53.586;9.928;2023-02-01T08:52:51;40.17;;;7.87;;
5612;SDS011;63463;53.586;9.928;2023-02-01T08:55:17;17.23;;;6.10;;
5612;SDS011;63463;53.586;9.928;2023-02-01T08:57:44;21.53;;;6.77;;
5612;SDS011;63463;53.586;9.928;2023-02-01T09:00:14;30.80;;;6.10;;
5612;SDS011;63463;53.586;9.928;2023-02-01T09:02:40;27.57;;;7.37;;
5612;SDS011;63463;53.586;9.928;2023-02-01T09:05:07;25.27;;;6.70;;
5612;SDS011;63463;53.586;9.928;2023-02-01T09:07:33;28.43;;;6.87;;
5612;SDS011;63463;53.586;9.928;2023-02-01T09:09:59;18.87;;;6.43;;
5612;SDS011;63463;53.586;9.928;2023-02-01T09:12:26;21.43;;;6.37;;
5612;SDS011;63463;53.586;9.928;2023-02-01T09:14:53;13.47;;;6.20;;
5612;SDS011;63463;53.586;9.928;2023-02-01T09:17:19;25.03;;;7.90;;
5612;SDS011;63463;53.586;9.928;2023-02-01T09:19:45;31.10;;;6.73;;
5612;SDS011;63463;53.586;9.928;2023-02-01T09:22:11;23.03;;;6.70;;
5612;SDS011;63463;53.586;9.928;2023-02-01T09:24:37;32.23;;;8.03;;
5612;SDS011;63463;53.586;9.928;2023-02-01T09:27:03;11.97;;;6.03;;
5612;SDS011;63463;53.586;9.928;2023-02-01T09:29:29;13.93;;;5.90;;
5612;SDS011;63463;53.586;9.928;2023-02-01T09:31:55;41.73;;;7.07;;
5612;SDS011;63463;53.586;9.928;2023-02-01T09:34:21;23.50;;;6.63;;
5612;SDS011;63463;53.586;9.928;2023-02-01T09:36:47;28.80;;;7.10;;
5612;SDS011;63463;53.586;9.928;2023-02-01T09:39:13;22.83;;;6.00;;
5612;SDS011;63463;53.586;9.928;2023-02-01T09:42:23;26.70;;;6.23;;
5612;SDS011;63463;53.586;9.928;2023-02-01T09:47:00;19.27;;;7.37;;
5612;SDS011;63463;53.586;9.928;2023-02-01T09:49:30;11.77;;;5.83;;
5612;SDS011;63463;53.586;9.928;2023-02-01T09:51:57;19.13;;;5.80;;
5612;SDS011;63463;53.586;9.928;2023-02-01T09:54:25;20.60;;;6.13;;
5612;SDS011;63463;53.586;9.928;2023-02-01T10:01:46;22.33;;;7.00;;
5612;SDS011;63463;53.586;9.928;2023-02-01T10:04:13;21.50;;;6.40;;
5612;SDS011;63463;53.586;9.928;2023-02-01T10:16:52;26.40;;;6.00;;
5612;SDS011;63463;53.586;9.928;2023-02-01T10:22:47;23.13;;;6.10;;
5612;SDS011;63463;53.586;9.928;2023-02-01T10:24:53;22.67;;;6.07;;
5612;SDS011;63463;53.586;9.928;2023-02-01T10:27:33;22.47;;;7.10;;
5612;SDS011;63463;53.586;9.928;2023-02-01T10:30:01;29.37;;;7.13;;
5612;SDS011;63463;53.586;9.928;2023-02-01T10:32:30;24.63;;;6.50;;
5612;SDS011;63463;53.586;9.928;2023-02-01T10:34:57;13.10;;;6.57;;
5612;SDS011;63463;53.586;9.928;2023-02-01T10:37:31;19.20;;;5.97;;
5612;SDS011;63463;53.586;9.928;2023-02-01T10:39:59;27.73;;;7.30;;
5612;SDS011;63463;53.586;9.928;2023-02-01T10:42:26;23.40;;;6.37;;
5612;SDS011;63463;53.586;9.928;2023-02-01T10:44:53;10.80;;;6.30;;
5612;SDS011;63463;53.586;9.928;2023-02-01T10:47:20;20.03;;;7.20;;
5612;SDS011;63463;53.586;9.928;2023-02-01T10:52:40;22.70;;;6.20;;
5612;SDS011;63463;53.586;9.928;2023-02-01T10:57:59;37.60;;;6.80;;
5612;SDS011;63463;53.586;9.928;2023-02-01T11:00:26;25.70;;;6.83;;
5612;SDS011;63463;53.586;9.928;2023-02-01T11:02:52;36.70;;;6.80;;
5612;SDS011;63463;53.586;9.928;2023-02-01T11:05:19;27.30;;;7.00;;
5612;SDS011;63463;53.586;9.928;2023-02-01T11:07:51;24.77;;;6.80;;
5612;SDS011;63463;53.586;9.928;2023-02-01T11:13:21;32.20;;;7.37;;
5612;SDS011;63463;53.586;9.928;2023-02-01T11:15:54;12.47;;;6.00;;
5612;SDS011;63463;53.586;9.928;2023-02-01T11:18:25;12.77;;;6.00;;
5612;SDS011;63463;53.586;9.928;2023-02-01T11:20:51;21.77;;;6.30;;
5612;SDS011;63463;53.586;9.928;2023-02-01T11:23:21;27.93;;;6.53;;
5612;SDS011;63463;53.586;9.928;2023-02-01T11:25:54;37.70;;;6.77;;
5612;SDS011;63463;53.586;9.928;2023-02-01T11:28:21;22.13;;;6.53;;
5612;SDS011;63463;53.586;9.928;2023-02-01T11:30:48;20.40;;;6.50;;
5612;SDS011;63463;53.586;9.928;2023-02-01T11:33:18;25.43;;;6.60;;
5612;SDS011;63463;53.586;9.928;2023-02-01T11:35:45;23.40;;;6.77;;
5612;SDS011;63463;53.586;9.928;2023-02-01T11:40:44;25.27;;;6.97;;
5612;SDS011;63463;53.586;9.928;2023-02-01T11:43:16;23.13;;;5.90;;
5612;SDS011;63463;53.586;9.928;2023-02-01T11:46:44;13.93;;;7.00;;
5612;SDS011;63463;53.586;9.928;2023-02-01T11:48:39;21.70;;;6.30;;
5612;SDS011;63463;53.586;9.928;2023-02-01T11:51:21;24.63;;;6.63;;
5612;SDS011;63463;53.586;9.928;2023-02-01T11:56:37;13.20;;;5.53;;
5612;SDS011;63463;53.586;9.928;2023-02-01T12:04:42;14.23;;;5.23;;
5612;SDS011;63463;53.586;9.928;2023-02-01T12:07:29;12.60;;;5.80;;
5612;SDS011;63463;53.586;9.928;2023-02-01T12:15:01;12.73;;;5.47;;
5612;SDS011;63463;53.586;9.928;2023-02-01T12:25:14;8.23;;;4.70;;
5612;SDS011;63463;53.586;9.928;2023-02-01T12:27:56;7.60;;;4.97;;
5612;SDS011;63463;53.586;9.928;2023-02-01T12:42:59;4.83;;;4.57;;
5612;SDS011;63463;53.586;9.928;2023-02-01T12:45:35;4.60;;;4.40;;
5612;SDS011;63463;53.586;9.928;2023-02-01T12:50:33;4.60;;;4.40;;
5612;SDS011;63463;53.586;9.928;2023-02-01T12:55:47;4.93;;;4.20;;
5612;SDS011;63463;53.586;9.928;2023-02-01T13:01:02;4.43;;;4.30;;
5612;SDS011;63463;53.586;9.928;2023-02-01T13:03:44;4.60;;;4.30;;
5612;SDS011;63463;53.586;9.928;2023-02-01T13:06:17;4.83;;;4.40;;
5612;SDS011;63463;53.586;9.928;2023-02-01T13:09:05;5.27;;;4.87;;
5612;SDS011;63463;53.586;9.928;2023-02-01T13:11:34;5.07;;;4.77;;
5612;SDS011;63463;53.586;9.928;2023-02-01T13:14:05;4.90;;;4.50;;
5612;SDS011;63463;53.586;9.928;2023-02-01T13:16:43;5.23;;;4.47;;
5612;SDS011;63463;53.586;9.928;2023-02-01T13:19:15;5.10;;;4.90;;
5612;SDS011;63463;53.586;9.928;2023-02-01T13:21:44;5.17;;;4.77;;
5612;SDS011;63463;53.586;9.928;2023-02-01T13:24:31;4.50;;;4.40;;
5612;SDS011;63463;53.586;9.928;2023-02-01T13:26:59;4.70;;;4.40;;
5612;SDS011;63463;53.586;9.928;2023-02-01T13:29:26;4.43;;;4.33;;
5612;SDS011;63463;53.586;9.928;2023-02-01T13:32:15;4.47;;;4.17;;
5612;SDS011;63463;53.586;9.928;2023-02-01T13:42:55;4.83;;;4.40;;
5612;SDS011;63463;53.586;9.928;2023-02-01T13:47:48;4.93;;;4.33;;
5612;SDS011;63463;53.586;9.928;2023-02-01T13:50:34;4.90;;;4.50;;
5612;SDS011;63463;53.586;9.928;2023-02-01T13:53:03;4.90;;;4.60;;
5612;SDS011;63463;53.586;9.928;2023-02-01T13:55:31;5.50;;;5.00;;
5612;SDS011;63463;53.586;9.928;2023-02-01T14:00:37;6.23;;;4.60;;
5612;SDS011;63463;53.586;9.928;2023-02-01T14:18:48;18.17;;;5.00;;
5612;SDS011;63463;53.586;9.928;2023-02-01T14:23:42;8.50;;;4.67;;
5612;SDS011;63463;53.586;9.928;2023-02-01T14:26:09;14.10;;;5.30;;
5612;SDS011;63463;53.586;9.928;2023-02-01T14:28:36;7.43;;;4.70;;
5612;SDS011;63463;53.586;9.928;2023-02-01T14:31:13;21.10;;;5.23;;
5612;SDS011;63463;53.586;9.928;2023-02-01T14:33:41;6.60;;;5.20;;
5612;SDS011;63463;53.586;9.928;2023-02-01T14:36:08;17.03;;;5.40;;
5612;SDS011;63463;53.586;9.928;2023-02-01T14:38:35;12.27;;;5.00;;
5612;SDS011;63463;53.586;9.928;2023-02-01T14:41:23;5.53;;;4.83;;
5612;SDS011;63463;53.586;9.928;2023-02-01T14:44:36;5.77;;;4.63;;
5612;SDS011;63463;53.586;9.928;2023-02-01T14:49:22;15.13;;;5.47;;
5612;SDS011;63463;53.586;9.928;2023-02-01T14:51:49;6.23;;;5.07;;
5612;SDS011;63463;53.586;9.928;2023-02-01T14:54:16;11.80;;;5.53;;
5612;SDS011;63463;53.586;9.928;2023-02-01T14:56:44;15.47;;;5.40;;
5612;SDS011;63463;53.586;9.928;2023-02-01T14:59:13;22.67;;;5.47;;
5612;SDS011;63463;53.586;9.928;2023-02-01T15:01:47;9.33;;;4.97;;
5612;SDS011;63463;53.586;9.928;2023-02-01T15:04:16;10.83;;;5.90;;
5612;SDS011;63463;53.586;9.928;2023-02-01T15:09:29;13.90;;;5.80;;
5612;SDS011;63463;53.586;9.928;2023-02-01T15:11:57;17.90;;;6.00;;
5612;SDS011;63463;53.586;9.928;2023-02-01T15:14:24;18.70;;;5.33;;
5612;SDS011;63463;53.586;9.928;2023-02-01T15:16:50;15.00;;;5.57;;
5612;SDS011;63463;53.586;9.928;2023-02-01T15:19:19;17.10;;;5.93;;
5612;SDS011;63463;53.586;9.928;2023-02-01T15:21:47;15.97;;;5.23;;
5612;SDS011;63463;53.586;9.928;2023-02-01T15:26:49;9.60;;;5.83;;
5612;SDS011;63463;53.586;9.928;2023-02-01T15:29:15;8.40;;;5.60;;
5612;SDS011;63463;53.586;9.928;2023-02-01T15:31:43;19.23;;;6.20;;
5612;SDS011;63463;53.586;9.928;2023-02-01T15:34:10;18.97;;;5.03;;
5612;SDS011;63463;53.586;9.928;2023-02-01T15:36:36;9.17;;;5.20;;
5612;SDS011;63463;53.586;9.928;2023-02-01T15:39:12;16.33;;;5.37;;
5612;SDS011;63463;53.586;9.928;2023-02-01T15:41:43;9.77;;;5.23;;
5612;SDS011;63463;53.586;9.928;2023-02-01T15:44:30;25.93;;;5.13;;
5612;SDS011;63463;53.586;9.928;2023-02-01T15:46:56;12.70;;;5.50;;
5612;SDS011;63463;53.586;9.928;2023-02-01T15:51:48;11.33;;;5.70;;
5612;SDS011;63463;53.586;9.928;2023-02-01T15:54:19;17.87;;;5.93;;
5612;SDS011;63463;53.586;9.928;2023-02-01T15:56:49;17.13;;;5.77;;
5612;SDS011;63463;53.586;9.928;2023-02-01T15:59:21;12.50;;;5.60;;
5612;SDS011;63463;53.586;9.928;2023-02-01T16:01:47;13.17;;;5.07;;
5612;SDS011;63463;53.586;9.928;2023-02-01T16:04:23;14.20;;;6.03;;
5612;SDS011;63463;53.586;9.928;2023-02-01T16:06:50;15.40;;;5.97;;
5612;SDS011;63463;53.586;9.928;2023-02-01T16:09:18;24.57;;;6.77;;
5612;SDS011;63463;53.586;9.928;2023-02-01T16:11:51;14.77;;;6.20;;
5612;SDS011;63463;53.586;9.928;2023-02-01T16:14:18;11.97;;;5.40;;
5612;SDS011;63463;53.586;9.928;2023-02-01T16:16:45;15.23;;;6.17;;
5612;SDS011;63463;53.586;9.928;2023-02-01T16:19:11;10.23;;;5.67;;
5612;SDS011;63463;53.586;9.928;2023-02-01T16:21:37;17.40;;;5.97;;
5612;SDS011;63463;53.586;9.928;2023-02-01T16:24:03;19.50;;;6.57;;
5612;SDS011;63463;53.586;9.928;2023-02-01T16:26:30;19.27;;;6.07;;
5612;SDS011;63463;53.586;9.928;2023-02-01T16:28:56;13.90;;;5.53;;
5612;SDS011;63463;53.586;9.928;2023-02-01T16:31:25;30.63;;;6.07;;
5612;SDS011;63463;53.586;9.928;2023-02-01T16:33:52;27.73;;;6.63;;
5612;SDS011;63463;53.586;9.928;2023-02-01T16:36:18;21.00;;;6.77;;
5612;SDS011;63463;53.586;9.928;2023-02-01T16:38:44;20.70;;;7.70;;
5612;SDS011;63463;53.586;9.928;2023-02-01T16:41:13;22.43;;;7.43;;
5612;SDS011;63463;53.586;9.928;2023-02-01T16:43:39;25.93;;;6.23;;
5612;SDS011;63463;53.586;9.928;2023-02-01T16:46:05;27.83;;;7.60;;
5612;SDS011;63463;53.586;9.928;2023-02-01T16:48:37;26.43;;;6.67;;
5612;SDS011;63463;53.586;9.928;2023-02-01T16:51:09;26.90;;;6.67;;
5612;SDS011;63463;53.586;9.928;2023-02-01T16:53:36;30.67;;;6.80;;
5612;SDS011;63463;53.586;9.928;2023-02-01T16:56:07;19.37;;;6.30;;
5612;SDS011;63463;53.586;9.928;2023-02-01T16:58:35;30.20;;;8.83;;
5612;SDS011;63463;53.586;9.928;2023-02-01T17:01:01;32.73;;;7.30;;
5612;SDS011;63463;53.586;9.928;2023-02-01T17:03:27;46.07;;;8.57;;
5612;SDS011;63463;53.586;9.928;2023-02-01T17:05:54;34.60;;;8.20;;
5612;SDS011;63463;53.586;9.928;2023-02-01T17:08:29;29.30;;;6.90;;
5612;SDS011;63463;53.586;9.928;2023-02-01T17:10:56;19.13;;;6.53;;
5612;SDS011;63463;53.586;9.928;2023-02-01T17:13:23;29.23;;;6.93;;
5612;SDS011;63463;53.586;9.928;2023-02-01T17:15:50;22.03;;;7.80;;